sensor_id;sensor_type;location;lat;lon;timestamp;P1;P2;P0
46094;PMS5003;31832;50.746;-2.716;2023-12-22T00:02:00;2;2;
46094;PMS5003;31832;50.746;-2.716;2023-12-22T00:04:26;2;2;
46094;PMS5003;31832;50.746;-2.716;2023-12-22T00:06:51;2;1;
46094;PMS5003;31832;50.746;-2.716;2023-12-22T00:09:16;1;1;
46094;PMS5003;31832;50.746;-2.716;2023-12-22T00:11:41;1;1;
46094;PMS5003;31832;50.746;-2.716;2023-12-22T00:14:07;4;2;
46094;PMS5003;31832;50.746;-2.716;2023-12-22T00:16:32;2;0;
46094;PMS5003;31832;50.746;-2.716;2023-12-22T00:18:57;3;3;
46094;PMS5003;31832;50.746;-2.716;2023-12-22T00:21:22;1;1;
46094;PMS5003;31832;50.746;-2.716;2023-12-22T00:23:47;4;1;
46094;PMS5003;31832;50.746;-2.716;2023-12-22T00:26:13;1;1;
46094;PMS5003;31832;50.746;-2.716;2023-12-22T00:28:38;2;2;
46094;PMS5003;31832;50.746;-2.716;2023-12-22T00:31:04;2;0;
46094;PMS5003;31832;50.746;-2.716;2023-12-22T00:33:29;3;2;
46094;PMS5003;31832;50.746;-2.716;2023-12-22T00:35:54;4;1;
46094;PMS5003;31832;50.746;-2.716;2023-12-22T00:38:19;1;1;
46094;PMS5003;31832;50.746;-2.716;2023-12-22T00:40:45;2;2;
46094;PMS5003;31832;50.746;-2.716;2023-12-22T00:43:10;3;1;
46094;PMS5003;31832;50.746;-2.716;2023-12-22T00:45:36;3;0;
46094;PMS5003;31832;50.746;-2.716;2023-12-22T00:48:01;2;0;
46094;PMS5003;31832;50.746;-2.716;2023-12-22T00:50:26;1;1;
46094;PMS5003;31832;50.746;-2.716;2023-12-22T00:52:51;1;1;
46094;PMS5003;31832;50.746;-2.716;2023-12-22T00:55:16;1;1;
46094;PMS5003;31832;50.746;-2.716;2023-12-22T00:57:42;1;1;
46094;PMS5003;31832;50.746;-2.716;2023-12-22T01:00:08;3;3;
46094;PMS5003;31832;50.746;-2.716;2023-12-22T01:02:33;1;1;
46094;PMS5003;31832;50.746;-2.716;2023-12-22T01:04:58;1;1;
46094;PMS5003;31832;50.746;-2.716;2023-12-22T01:07:23;5;2;
46094;PMS5003;31832;50.746;-2.716;2023-12-22T01:09:48;1;1;
46094;PMS5003;31832;50.746;-2.716;2023-12-22T01:12:14;2;1;
46094;PMS5003;31832;50.746;-2.716;2023-12-22T01:14:39;1;1;
46094;PMS5003;31832;50.746;-2.716;2023-12-22T01:17:04;2;1;
46094;PMS5003;31832;50.746;-2.716;2023-12-22T01:19:30;1;1;
46094;PMS5003;31832;50.746;-2.716;2023-12-22T01:21:55;1;1;
46094;PMS5003;31832;50.746;-2.716;2023-12-22T01:24:20;0;0;
46094;PMS5003;31832;50.746;-2.716;2023-12-22T01:26:45;3;2;
46094;PMS5003;31832;50.746;-2.716;2023-12-22T01:29:10;1;0;
46094;PMS5003;31832;50.746;-2.716;2023-12-22T01:31:36;0;0;
46094;PMS5003;31832;50.746;-2.716;2023-12-22T01:34:01;2;2;
46094;PMS5003;31832;50.746;-2.716;2023-12-22T01:36:27;0;0;
46094;PMS5003;31832;50.746;-2.716;2023-12-22T01:38:52;1;1;
46094;PMS5003;31832;50.746;-2.716;2023-12-22T01:41:18;3;2;
46094;PMS5003;31832;50.746;-2.716;2023-12-22T01:43:43;2;2;
46094;PMS5003;31832;50.746;-2.716;2023-12-22T01:46:08;2;1;
46094;PMS5003;31832;50.746;-2.716;2023-12-22T01:48:33;0;0;
46094;PMS5003;31832;50.746;-2.716;2023-12-22T01:50:59;1;1;
46094;PMS5003;31832;50.746;-2.716;2023-12-22T01:53:24;0;0;
46094;PMS5003;31832;50.746;-2.716;2023-12-22T01:55:49;1;1;
46094;PMS5003;31832;50.746;-2.716;2023-12-22T01:58:14;2;0;
46094;PMS5003;31832;50.746;-2.716;2023-12-22T02:00:39;2;1;
46094;PMS5003;31832;50.746;-2.716;2023-12-22T02:03:04;0;0;
46094;PMS5003;31832;50.746;-2.716;2023-12-22T02:05:30;4;0;
46094;PMS5003;31832;50.746;-2.716;2023-12-22T02:07:55;1;1;
46094;PMS5003;31832;50.746;-2.716;2023-12-22T02:10:20;0;0;
46094;PMS5003;31832;50.746;-2.716;2023-12-22T02:12:46;1;1;
46094;PMS5003;31832;50.746;-2.716;2023-12-22T02:15:11;0;0;
46094;PMS5003;31832;50.746;-2.716;2023-12-22T02:17:38;0;0;
46094;PMS5003;31832;50.746;-2.716;2023-12-22T02:20:01;0;0;
46094;PMS5003;31832;50.746;-2.716;2023-12-22T02:22:28;0;0;
46094;PMS5003;31832;50.746;-2.716;2023-12-22T02:24:52;3;1;
46094;PMS5003;31832;50.746;-2.716;2023-12-22T02:27:22;1;1;
46094;PMS5003;31832;50.746;-2.716;2023-12-22T02:29:45;3;3;
46094;PMS5003;31832;50.746;-2.716;2023-12-22T02:32:10;0;0;
46094;PMS5003;31832;50.746;-2.716;2023-12-22T02:34:33;1;1;
46094;PMS5003;31832;50.746;-2.716;2023-12-22T02:36:58;2;0;
46094;PMS5003;31832;50.746;-2.716;2023-12-22T02:39:23;2;1;
46094;PMS5003;31832;50.746;-2.716;2023-12-22T02:41:49;3;1;
46094;PMS5003;31832;50.746;-2.716;2023-12-22T02:44:14;2;0;
46094;PMS5003;31832;50.746;-2.716;2023-12-22T02:46:39;1;1;
46094;PMS5003;31832;50.746;-2.716;2023-12-22T02:49:04;1;1;
46094;PMS5003;31832;50.746;-2.716;2023-12-22T02:51:29;0;0;
46094;PMS5003;31832;50.746;-2.716;2023-12-22T02:53:55;1;0;
46094;PMS5003;31832;50.746;-2.716;2023-12-22T02:56:20;2;1;
46094;PMS5003;31832;50.746;-2.716;2023-12-22T02:58:46;1;1;
46094;PMS5003;31832;50.746;-2.716;2023-12-22T03:01:11;1;1;
46094;PMS5003;31832;50.746;-2.716;2023-12-22T03:03:36;1;1;
46094;PMS5003;31832;50.746;-2.716;2023-12-22T03:06:01;1;1;
46094;PMS5003;31832;50.746;-2.716;2023-12-22T03:08:27;0;0;
46094;PMS5003;31832;50.746;-2.716;2023-12-22T03:10:52;1;0;
46094;PMS5003;31832;50.746;-2.716;2023-12-22T03:13:17;1;1;
46094;PMS5003;31832;50.746;-2.716;2023-12-22T03:15:42;1;1;
46094;PMS5003;31832;50.746;-2.716;2023-12-22T03:18:08;1;0;
46094;PMS5003;31832;50.746;-2.716;2023-12-22T03:20:33;3;1;
46094;PMS5003;31832;50.746;-2.716;2023-12-22T03:22:58;1;1;
46094;PMS5003;31832;50.746;-2.716;2023-12-22T03:25:23;1;1;
46094;PMS5003;31832;50.746;-2.716;2023-12-22T03:27:48;1;1;
46094;PMS5003;31832;50.746;-2.716;2023-12-22T03:30:14;1;1;
46094;PMS5003;31832;50.746;-2.716;2023-12-22T03:32:40;1;1;
46094;PMS5003;31832;50.746;-2.716;2023-12-22T03:35:05;1;1;
46094;PMS5003;31832;50.746;-2.716;2023-12-22T03:37:30;0;0;
46094;PMS5003;31832;50.746;-2.716;2023-12-22T03:39:55;1;1;
46094;PMS5003;31832;50.746;-2.716;2023-12-22T03:42:20;1;1;
46094;PMS5003;31832;50.746;-2.716;2023-12-22T03:44:45;1;1;
46094;PMS5003;31832;50.746;-2.716;2023-12-22T03:47:10;1;1;
46094;PMS5003;31832;50.746;-2.716;2023-12-22T03:49:36;1;1;
46094;PMS5003;31832;50.746;-2.716;2023-12-22T03:52:01;1;1;
46094;PMS5003;31832;50.746;-2.716;2023-12-22T03:54:26;4;1;
46094;PMS5003;31832;50.746;-2.716;2023-12-22T03:56:52;0;0;
46094;PMS5003;31832;50.746;-2.716;2023-12-22T03:59:17;1;1;
46094;PMS5003;31832;50.746;-2.716;2023-12-22T04:01:42;2;1;
46094;PMS5003;31832;50.746;-2.716;2023-12-22T04:04:07;1;1;
46094;PMS5003;31832;50.746;-2.716;2023-12-22T04:06:32;1;1;
46094;PMS5003;31832;50.746;-2.716;2023-12-22T04:08:57;2;1;
46094;PMS5003;31832;50.746;-2.716;2023-12-22T04:11:23;1;1;
46094;PMS5003;31832;50.746;-2.716;2023-12-22T04:13:48;4;4;
46094;PMS5003;31832;50.746;-2.716;2023-12-22T04:16:14;0;0;
46094;PMS5003;31832;50.746;-2.716;2023-12-22T04:18:39;1;1;
46094;PMS5003;31832;50.746;-2.716;2023-12-22T04:21:04;3;1;
46094;PMS5003;31832;50.746;-2.716;2023-12-22T04:23:29;1;1;
46094;PMS5003;31832;50.746;-2.716;2023-12-22T04:25:55;0;0;
46094;PMS5003;31832;50.746;-2.716;2023-12-22T04:28:20;2;2;
46094;PMS5003;31832;50.746;-2.716;2023-12-22T04:30:45;3;0;
46094;PMS5003;31832;50.746;-2.716;2023-12-22T04:33:10;1;1;
46094;PMS5003;31832;50.746;-2.716;2023-12-22T04:35:35;1;1;
46094;PMS5003;31832;50.746;-2.716;2023-12-22T04:38:01;3;1;
46094;PMS5003;31832;50.746;-2.716;2023-12-22T04:40:26;1;1;
46094;PMS5003;31832;50.746;-2.716;2023-12-22T04:42:52;0;0;
46094;PMS5003;31832;50.746;-2.716;2023-12-22T04:45:17;2;1;
46094;PMS5003;31832;50.746;-2.716;2023-12-22T04:47:42;2;1;
46094;PMS5003;31832;50.746;-2.716;2023-12-22T04:50:08;1;1;
46094;PMS5003;31832;50.746;-2.716;2023-12-22T04:52:32;3;2;
46094;PMS5003;31832;50.746;-2.716;2023-12-22T04:54:58;1;0;
46094;PMS5003;31832;50.746;-2.716;2023-12-22T04:57:23;1;0;
46094;PMS5003;31832;50.746;-2.716;2023-12-22T04:59:48;2;1;
46094;PMS5003;31832;50.746;-2.716;2023-12-22T05:02:13;2;1;
46094;PMS5003;31832;50.746;-2.716;2023-12-22T05:04:39;1;1;
46094;PMS5003;31832;50.746;-2.716;2023-12-22T05:07:04;1;1;
46094;PMS5003;31832;50.746;-2.716;2023-12-22T05:09:29;2;2;
46094;PMS5003;31832;50.746;-2.716;2023-12-22T05:11:54;0;0;
46094;PMS5003;31832;50.746;-2.716;2023-12-22T05:14:19;0;0;
46094;PMS5003;31832;50.746;-2.716;2023-12-22T05:16:45;2;2;
46094;PMS5003;31832;50.746;-2.716;2023-12-22T05:19:10;0;0;
46094;PMS5003;31832;50.746;-2.716;2023-12-22T05:21:36;5;4;
46094;PMS5003;31832;50.746;-2.716;2023-12-22T05:24:01;4;1;
46094;PMS5003;31832;50.746;-2.716;2023-12-22T05:26:26;1;1;
46094;PMS5003;31832;50.746;-2.716;2023-12-22T05:28:51;2;1;
46094;PMS5003;31832;50.746;-2.716;2023-12-22T05:31:17;2;2;
46094;PMS5003;31832;50.746;-2.716;2023-12-22T05:33:42;2;2;
46094;PMS5003;31832;50.746;-2.716;2023-12-22T05:36:07;3;0;
46094;PMS5003;31832;50.746;-2.716;2023-12-22T05:38:32;4;2;
46094;PMS5003;31832;50.746;-2.716;2023-12-22T05:40:57;5;4;
46094;PMS5003;31832;50.746;-2.716;2023-12-22T05:43:23;1;1;
46094;PMS5003;31832;50.746;-2.716;2023-12-22T05:45:49;3;3;
46094;PMS5003;31832;50.746;-2.716;2023-12-22T05:48:14;2;2;
46094;PMS5003;31832;50.746;-2.716;2023-12-22T05:50:39;4;3;
46094;PMS5003;31832;50.746;-2.716;2023-12-22T05:53:04;0;0;
46094;PMS5003;31832;50.746;-2.716;2023-12-22T05:55:29;4;3;
46094;PMS5003;31832;50.746;-2.716;2023-12-22T05:57:55;5;5;
46094;PMS5003;31832;50.746;-2.716;2023-12-22T06:00:20;2;1;
46094;PMS5003;31832;50.746;-2.716;2023-12-22T06:02:46;2;1;
46094;PMS5003;31832;50.746;-2.716;2023-12-22T06:05:11;5;5;
46094;PMS5003;31832;50.746;-2.716;2023-12-22T06:07:37;4;3;
46094;PMS5003;31832;50.746;-2.716;2023-12-22T06:10:02;3;3;
46094;PMS5003;31832;50.746;-2.716;2023-12-22T06:12:28;7;4;
46094;PMS5003;31832;50.746;-2.716;2023-12-22T06:14:53;5;5;
46094;PMS5003;31832;50.746;-2.716;2023-12-22T06:17:18;4;4;
46094;PMS5003;31832;50.746;-2.716;2023-12-22T06:19:44;3;1;
46094;PMS5003;31832;50.746;-2.716;2023-12-22T06:22:09;3;3;
46094;PMS5003;31832;50.746;-2.716;2023-12-22T06:24:34;6;3;
46094;PMS5003;31832;50.746;-2.716;2023-12-22T06:27:00;5;5;
46094;PMS5003;31832;50.746;-2.716;2023-12-22T06:29:26;8;5;
46094;PMS5003;31832;50.746;-2.716;2023-12-22T06:31:51;6;3;
46094;PMS5003;31832;50.746;-2.716;2023-12-22T06:34:17;4;4;
46094;PMS5003;31832;50.746;-2.716;2023-12-22T06:36:43;4;3;
46094;PMS5003;31832;50.746;-2.716;2023-12-22T06:39:08;4;4;
46094;PMS5003;31832;50.746;-2.716;2023-12-22T06:41:33;7;4;
46094;PMS5003;31832;50.746;-2.716;2023-12-22T06:43:58;9;6;
46094;PMS5003;31832;50.746;-2.716;2023-12-22T06:46:24;3;3;
46094;PMS5003;31832;50.746;-2.716;2023-12-22T06:48:49;3;3;
46094;PMS5003;31832;50.746;-2.716;2023-12-22T06:51:17;10;5;
46094;PMS5003;31832;50.746;-2.716;2023-12-22T06:53:40;4;3;
46094;PMS5003;31832;50.746;-2.716;2023-12-22T06:58:31;3;3;
46094;PMS5003;31832;50.746;-2.716;2023-12-22T07:00:56;6;5;
46094;PMS5003;31832;50.746;-2.716;2023-12-22T07:03:22;10;8;
46094;PMS5003;31832;50.746;-2.716;2023-12-22T07:05:47;6;6;
46094;PMS5003;31832;50.746;-2.716;2023-12-22T07:08:12;6;5;
46094;PMS5003;31832;50.746;-2.716;2023-12-22T07:10:38;9;6;
46094;PMS5003;31832;50.746;-2.716;2023-12-22T07:13:03;6;6;
46094;PMS5003;31832;50.746;-2.716;2023-12-22T07:15:28;9;4;
46094;PMS5003;31832;50.746;-2.716;2023-12-22T07:17:54;4;3;
46094;PMS5003;31832;50.746;-2.716;2023-12-22T07:20:20;10;6;
46094;PMS5003;31832;50.746;-2.716;2023-12-22T07:22:45;13;7;
46094;PMS5003;31832;50.746;-2.716;2023-12-22T07:25:11;5;4;
46094;PMS5003;31832;50.746;-2.716;2023-12-22T07:27:37;6;3;
46094;PMS5003;31832;50.746;-2.716;2023-12-22T07:30:03;6;6;
46094;PMS5003;31832;50.746;-2.716;2023-12-22T07:32:28;8;5;
46094;PMS5003;31832;50.746;-2.716;2023-12-22T07:34:53;5;5;
46094;PMS5003;31832;50.746;-2.716;2023-12-22T07:37:19;7;5;
46094;PMS5003;31832;50.746;-2.716;2023-12-22T07:39:44;4;3;
46094;PMS5003;31832;50.746;-2.716;2023-12-22T07:42:10;9;7;
46094;PMS5003;31832;50.746;-2.716;2023-12-22T07:44:35;7;6;
46094;PMS5003;31832;50.746;-2.716;2023-12-22T07:47:01;6;4;
46094;PMS5003;31832;50.746;-2.716;2023-12-22T07:49:26;5;3;
46094;PMS5003;31832;50.746;-2.716;2023-12-22T07:51:52;8;6;
46094;PMS5003;31832;50.746;-2.716;2023-12-22T07:54:17;6;4;
46094;PMS5003;31832;50.746;-2.716;2023-12-22T07:56:43;5;4;
46094;PMS5003;31832;50.746;-2.716;2023-12-22T07:59:08;4;4;
46094;PMS5003;31832;50.746;-2.716;2023-12-22T08:01:34;9;7;
46094;PMS5003;31832;50.746;-2.716;2023-12-22T08:04:00;6;6;
46094;PMS5003;31832;50.746;-2.716;2023-12-22T08:06:26;6;6;
46094;PMS5003;31832;50.746;-2.716;2023-12-22T08:08:51;8;7;
46094;PMS5003;31832;50.746;-2.716;2023-12-22T08:11:16;11;4;
46094;PMS5003;31832;50.746;-2.716;2023-12-22T08:13:42;8;6;
46094;PMS5003;31832;50.746;-2.716;2023-12-22T08:16:07;6;5;
46094;PMS5003;31832;50.746;-2.716;2023-12-22T08:18:32;8;4;
46094;PMS5003;31832;50.746;-2.716;2023-12-22T08:20:57;4;2;
46094;PMS5003;31832;50.746;-2.716;2023-12-22T08:23:22;5;4;
46094;PMS5003;31832;50.746;-2.716;2023-12-22T08:25:48;6;4;
46094;PMS5003;31832;50.746;-2.716;2023-12-22T08:28:14;3;3;
46094;PMS5003;31832;50.746;-2.716;2023-12-22T08:30:40;8;7;
46094;PMS5003;31832;50.746;-2.716;2023-12-22T08:33:05;7;6;
46094;PMS5003;31832;50.746;-2.716;2023-12-22T08:35:31;3;3;
46094;PMS5003;31832;50.746;-2.716;2023-12-22T08:37:56;4;3;
46094;PMS5003;31832;50.746;-2.716;2023-12-22T08:40:21;8;5;
46094;PMS5003;31832;50.746;-2.716;2023-12-22T08:42:47;5;4;
46094;PMS5003;31832;50.746;-2.716;2023-12-22T08:45:13;8;4;
46094;PMS5003;31832;50.746;-2.716;2023-12-22T08:47:39;5;4;
46094;PMS5003;31832;50.746;-2.716;2023-12-22T08:50:04;7;5;
46094;PMS5003;31832;50.746;-2.716;2023-12-22T08:52:30;8;6;
46094;PMS5003;31832;50.746;-2.716;2023-12-22T08:54:55;7;5;
46094;PMS5003;31832;50.746;-2.716;2023-12-22T08:57:21;10;7;
46094;PMS5003;31832;50.746;-2.716;2023-12-22T08:59:46;4;2;
46094;PMS5003;31832;50.746;-2.716;2023-12-22T09:02:11;9;7;
46094;PMS5003;31832;50.746;-2.716;2023-12-22T09:04:36;7;4;
46094;PMS5003;31832;50.746;-2.716;2023-12-22T09:07:02;9;4;
46094;PMS5003;31832;50.746;-2.716;2023-12-22T09:09:27;5;5;
46094;PMS5003;31832;50.746;-2.716;2023-12-22T09:11:53;7;5;
46094;PMS5003;31832;50.746;-2.716;2023-12-22T09:14:18;7;5;
46094;PMS5003;31832;50.746;-2.716;2023-12-22T09:16:44;5;5;
46094;PMS5003;31832;50.746;-2.716;2023-12-22T09:19:09;8;6;
46094;PMS5003;31832;50.746;-2.716;2023-12-22T09:21:34;8;6;
46094;PMS5003;31832;50.746;-2.716;2023-12-22T09:23:59;5;5;
46094;PMS5003;31832;50.746;-2.716;2023-12-22T09:26:24;10;6;
46094;PMS5003;31832;50.746;-2.716;2023-12-22T09:28:50;6;6;
46094;PMS5003;31832;50.746;-2.716;2023-12-22T09:31:15;12;5;
46094;PMS5003;31832;50.746;-2.716;2023-12-22T09:33:41;2;2;
46094;PMS5003;31832;50.746;-2.716;2023-12-22T09:36:06;9;5;
46094;PMS5003;31832;50.746;-2.716;2023-12-22T09:38:31;8;4;
46094;PMS5003;31832;50.746;-2.716;2023-12-22T09:40:56;8;6;
46094;PMS5003;31832;50.746;-2.716;2023-12-22T09:43:22;2;2;
46094;PMS5003;31832;50.746;-2.716;2023-12-22T09:45:48;7;5;
46094;PMS5003;31832;50.746;-2.716;2023-12-22T09:48:13;5;3;
46094;PMS5003;31832;50.746;-2.716;2023-12-22T09:50:39;4;4;
46094;PMS5003;31832;50.746;-2.716;2023-12-22T09:53:04;5;4;
46094;PMS5003;31832;50.746;-2.716;2023-12-22T09:55:31;8;4;
46094;PMS5003;31832;50.746;-2.716;2023-12-22T09:57:55;7;5;
46094;PMS5003;31832;50.746;-2.716;2023-12-22T10:00:21;7;5;
46094;PMS5003;31832;50.746;-2.716;2023-12-22T10:02:47;7;5;
46094;PMS5003;31832;50.746;-2.716;2023-12-22T10:05:12;7;6;
46094;PMS5003;31832;50.746;-2.716;2023-12-22T10:07:38;5;3;
46094;PMS5003;31832;50.746;-2.716;2023-12-22T10:10:04;6;3;
46094;PMS5003;31832;50.746;-2.716;2023-12-22T10:12:29;9;7;
46094;PMS5003;31832;50.746;-2.716;2023-12-22T10:14:55;5;5;
46094;PMS5003;31832;50.746;-2.716;2023-12-22T10:17:20;6;5;
46094;PMS5003;31832;50.746;-2.716;2023-12-22T10:19:45;7;6;
46094;PMS5003;31832;50.746;-2.716;2023-12-22T10:22:11;6;4;
46094;PMS5003;31832;50.746;-2.716;2023-12-22T10:24:37;5;5;
46094;PMS5003;31832;50.746;-2.716;2023-12-22T10:27:02;5;3;
46094;PMS5003;31832;50.746;-2.716;2023-12-22T10:29:27;5;3;
46094;PMS5003;31832;50.746;-2.716;2023-12-22T10:31:52;4;4;
46094;PMS5003;31832;50.746;-2.716;2023-12-22T10:34:18;8;4;
46094;PMS5003;31832;50.746;-2.716;2023-12-22T10:36:43;11;10;
46094;PMS5003;31832;50.746;-2.716;2023-12-22T10:39:09;7;4;
46094;PMS5003;31832;50.746;-2.716;2023-12-22T10:41:34;11;9;
46094;PMS5003;31832;50.746;-2.716;2023-12-22T10:44:00;22;19;
46094;PMS5003;31832;50.746;-2.716;2023-12-22T10:46:26;6;5;
46094;PMS5003;31832;50.746;-2.716;2023-12-22T10:48:52;7;7;
46094;PMS5003;31832;50.746;-2.716;2023-12-22T10:51:17;4;4;
46094;PMS5003;31832;50.746;-2.716;2023-12-22T10:53:42;5;5;
46094;PMS5003;31832;50.746;-2.716;2023-12-22T10:56:07;1;1;
46094;PMS5003;31832;50.746;-2.716;2023-12-22T10:58:33;5;3;
46094;PMS5003;31832;50.746;-2.716;2023-12-22T11:00:58;7;6;
46094;PMS5003;31832;50.746;-2.716;2023-12-22T11:03:24;5;3;
46094;PMS5003;31832;50.746;-2.716;2023-12-22T11:05:49;3;3;
46094;PMS5003;31832;50.746;-2.716;2023-12-22T11:08:14;3;3;
46094;PMS5003;31832;50.746;-2.716;2023-12-22T11:10:42;3;3;
46094;PMS5003;31832;50.746;-2.716;2023-12-22T11:13:04;4;4;
46094;PMS5003;31832;50.746;-2.716;2023-12-22T11:15:30;1;1;
46094;PMS5003;31832;50.746;-2.716;2023-12-22T11:17:56;4;3;
46094;PMS5003;31832;50.746;-2.716;2023-12-22T11:20:21;4;3;
46094;PMS5003;31832;50.746;-2.716;2023-12-22T11:22:46;3;2;
46094;PMS5003;31832;50.746;-2.716;2023-12-22T11:25:12;4;3;
46094;PMS5003;31832;50.746;-2.716;2023-12-22T11:27:37;4;4;
46094;PMS5003;31832;50.746;-2.716;2023-12-22T11:30:02;9;4;
46094;PMS5003;31832;50.746;-2.716;2023-12-22T11:32:28;6;3;
46094;PMS5003;31832;50.746;-2.716;2023-12-22T11:34:53;5;4;
46094;PMS5003;31832;50.746;-2.716;2023-12-22T11:37:18;2;2;
46094;PMS5003;31832;50.746;-2.716;2023-12-22T11:39:44;4;4;
46094;PMS5003;31832;50.746;-2.716;2023-12-22T11:42:10;5;5;
46094;PMS5003;31832;50.746;-2.716;2023-12-22T11:44:34;5;5;
46094;PMS5003;31832;50.746;-2.716;2023-12-22T11:47:04;3;2;
46094;PMS5003;31832;50.746;-2.716;2023-12-22T11:51:50;5;4;
46094;PMS5003;31832;50.746;-2.716;2023-12-22T11:56:41;2;1;
46094;PMS5003;31832;50.746;-2.716;2023-12-22T11:59:06;2;2;
46094;PMS5003;31832;50.746;-2.716;2023-12-22T12:01:34;4;3;
46094;PMS5003;31832;50.746;-2.716;2023-12-22T12:03:57;5;3;
46094;PMS5003;31832;50.746;-2.716;2023-12-22T12:06:25;1;1;
46094;PMS5003;31832;50.746;-2.716;2023-12-22T12:08:47;3;2;
46094;PMS5003;31832;50.746;-2.716;2023-12-22T12:11:12;1;1;
46094;PMS5003;31832;50.746;-2.716;2023-12-22T12:13:39;3;2;
46094;PMS5003;31832;50.746;-2.716;2023-12-22T12:16:03;2;2;
46094;PMS5003;31832;50.746;-2.716;2023-12-22T12:18:29;2;2;
46094;PMS5003;31832;50.746;-2.716;2023-12-22T12:20:54;5;4;
46094;PMS5003;31832;50.746;-2.716;2023-12-22T12:23:20;4;2;
46094;PMS5003;31832;50.746;-2.716;2023-12-22T12:25:45;6;4;
46094;PMS5003;31832;50.746;-2.716;2023-12-22T12:28:10;2;0;
46094;PMS5003;31832;50.746;-2.716;2023-12-22T12:30:36;7;3;
46094;PMS5003;31832;50.746;-2.716;2023-12-22T12:33:06;2;2;
46094;PMS5003;31832;50.746;-2.716;2023-12-22T12:35:27;2;1;
46094;PMS5003;31832;50.746;-2.716;2023-12-22T12:37:52;2;0;
46094;PMS5003;31832;50.746;-2.716;2023-12-22T12:40:17;1;1;
46094;PMS5003;31832;50.746;-2.716;2023-12-22T12:42:42;3;2;
46094;PMS5003;31832;50.746;-2.716;2023-12-22T12:45:08;3;3;
46094;PMS5003;31832;50.746;-2.716;2023-12-22T12:47:33;3;2;
46094;PMS5003;31832;50.746;-2.716;2023-12-22T12:49:58;2;2;
46094;PMS5003;31832;50.746;-2.716;2023-12-22T12:52:23;3;2;
46094;PMS5003;31832;50.746;-2.716;2023-12-22T12:54:49;4;3;
46094;PMS5003;31832;50.746;-2.716;2023-12-22T12:57:14;1;1;
46094;PMS5003;31832;50.746;-2.716;2023-12-22T12:59:39;2;2;
46094;PMS5003;31832;50.746;-2.716;2023-12-22T13:02:04;2;2;
46094;PMS5003;31832;50.746;-2.716;2023-12-22T13:06:55;4;1;
46094;PMS5003;31832;50.746;-2.716;2023-12-22T13:09:20;4;2;
46094;PMS5003;31832;50.746;-2.716;2023-12-22T13:11:45;7;4;
46094;PMS5003;31832;50.746;-2.716;2023-12-22T13:14:10;1;1;
46094;PMS5003;31832;50.746;-2.716;2023-12-22T13:16:35;3;1;
46094;PMS5003;31832;50.746;-2.716;2023-12-22T13:19:01;2;2;
46094;PMS5003;31832;50.746;-2.716;2023-12-22T13:21:26;2;2;
46094;PMS5003;31832;50.746;-2.716;2023-12-22T13:26:18;2;1;
46094;PMS5003;31832;50.746;-2.716;2023-12-22T13:28:42;2;2;
46094;PMS5003;31832;50.746;-2.716;2023-12-22T13:31:10;3;1;
46094;PMS5003;31832;50.746;-2.716;2023-12-22T13:33:33;1;1;
46094;PMS5003;31832;50.746;-2.716;2023-12-22T13:35:57;4;4;
46094;PMS5003;31832;50.746;-2.716;2023-12-22T13:38:23;2;2;
46094;PMS5003;31832;50.746;-2.716;2023-12-22T13:40:48;6;2;
46094;PMS5003;31832;50.746;-2.716;2023-12-22T13:43:14;0;0;
46094;PMS5003;31832;50.746;-2.716;2023-12-22T13:45:39;2;2;
46094;PMS5003;31832;50.746;-2.716;2023-12-22T13:48:04;2;2;
46094;PMS5003;31832;50.746;-2.716;2023-12-22T13:50:29;2;2;
46094;PMS5003;31832;50.746;-2.716;2023-12-22T13:52:55;4;4;
46094;PMS5003;31832;50.746;-2.716;2023-12-22T13:55:21;4;3;
46094;PMS5003;31832;50.746;-2.716;2023-12-22T13:57:46;2;2;
46094;PMS5003;31832;50.746;-2.716;2023-12-22T14:02:37;1;1;
46094;PMS5003;31832;50.746;-2.716;2023-12-22T14:05:02;3;2;
46094;PMS5003;31832;50.746;-2.716;2023-12-22T14:07:27;4;1;
46094;PMS5003;31832;50.746;-2.716;2023-12-22T14:09:53;2;2;
46094;PMS5003;31832;50.746;-2.716;2023-12-22T14:12:18;1;1;
46094;PMS5003;31832;50.746;-2.716;2023-12-22T14:14:45;1;1;
46094;PMS5003;31832;50.746;-2.716;2023-12-22T14:17:08;2;2;
46094;PMS5003;31832;50.746;-2.716;2023-12-22T14:19:34;1;1;
46094;PMS5003;31832;50.746;-2.716;2023-12-22T14:21:59;2;2;
46094;PMS5003;31832;50.746;-2.716;2023-12-22T14:24:24;3;2;
46094;PMS5003;31832;50.746;-2.716;2023-12-22T14:26:53;3;2;
46094;PMS5003;31832;50.746;-2.716;2023-12-22T14:29:15;4;2;
46094;PMS5003;31832;50.746;-2.716;2023-12-22T14:31:40;4;4;
46094;PMS5003;31832;50.746;-2.716;2023-12-22T14:34:06;1;1;
46094;PMS5003;31832;50.746;-2.716;2023-12-22T14:36:31;3;2;
46094;PMS5003;31832;50.746;-2.716;2023-12-22T14:38:56;2;2;
46094;PMS5003;31832;50.746;-2.716;2023-12-22T14:41:21;4;3;
46094;PMS5003;31832;50.746;-2.716;2023-12-22T14:43:47;2;2;
46094;PMS5003;31832;50.746;-2.716;2023-12-22T14:46:12;2;2;
46094;PMS5003;31832;50.746;-2.716;2023-12-22T14:48:37;3;3;
46094;PMS5003;31832;50.746;-2.716;2023-12-22T14:51:02;2;2;
46094;PMS5003;31832;50.746;-2.716;2023-12-22T14:53:27;1;1;
46094;PMS5003;31832;50.746;-2.716;2023-12-22T14:55:53;1;1;
46094;PMS5003;31832;50.746;-2.716;2023-12-22T14:58:18;3;2;
46094;PMS5003;31832;50.746;-2.716;2023-12-22T15:00:43;2;2;
46094;PMS5003;31832;50.746;-2.716;2023-12-22T15:03:09;2;2;
46094;PMS5003;31832;50.746;-2.716;2023-12-22T15:05:34;2;2;
46094;PMS5003;31832;50.746;-2.716;2023-12-22T15:07:59;4;2;
46094;PMS5003;31832;50.746;-2.716;2023-12-22T15:10:24;4;3;
46094;PMS5003;31832;50.746;-2.716;2023-12-22T15:12:50;14;12;
46094;PMS5003;31832;50.746;-2.716;2023-12-22T15:15:16;10;8;
46094;PMS5003;31832;50.746;-2.716;2023-12-22T15:17:41;10;7;
46094;PMS5003;31832;50.746;-2.716;2023-12-22T15:20:07;6;5;
46094;PMS5003;31832;50.746;-2.716;2023-12-22T15:22:32;8;5;
46094;PMS5003;31832;50.746;-2.716;2023-12-22T15:24:57;9;7;
46094;PMS5003;31832;50.746;-2.716;2023-12-22T15:27:22;3;2;
46094;PMS5003;31832;50.746;-2.716;2023-12-22T15:29:47;7;4;
46094;PMS5003;31832;50.746;-2.716;2023-12-22T15:32:12;12;9;
46094;PMS5003;31832;50.746;-2.716;2023-12-22T15:34:40;4;4;
46094;PMS5003;31832;50.746;-2.716;2023-12-22T15:37:04;5;5;
46094;PMS5003;31832;50.746;-2.716;2023-12-22T15:39:29;7;6;
46094;PMS5003;31832;50.746;-2.716;2023-12-22T15:41:55;7;4;
46094;PMS5003;31832;50.746;-2.716;2023-12-22T15:44:20;3;3;
46094;PMS5003;31832;50.746;-2.716;2023-12-22T15:46:45;2;2;
46094;PMS5003;31832;50.746;-2.716;2023-12-22T15:49:10;3;3;
46094;PMS5003;31832;50.746;-2.716;2023-12-22T15:51:36;4;3;
46094;PMS5003;31832;50.746;-2.716;2023-12-22T15:54:01;5;4;
46094;PMS5003;31832;50.746;-2.716;2023-12-22T15:56:26;1;1;
46094;PMS5003;31832;50.746;-2.716;2023-12-22T15:58:51;2;2;
46094;PMS5003;31832;50.746;-2.716;2023-12-22T16:01:17;4;4;
46094;PMS5003;31832;50.746;-2.716;2023-12-22T16:03:43;13;10;
46094;PMS5003;31832;50.746;-2.716;2023-12-22T16:06:08;7;5;
46094;PMS5003;31832;50.746;-2.716;2023-12-22T16:08:34;13;13;
46094;PMS5003;31832;50.746;-2.716;2023-12-22T16:10:59;6;5;
46094;PMS5003;31832;50.746;-2.716;2023-12-22T16:13:25;8;7;
46094;PMS5003;31832;50.746;-2.716;2023-12-22T16:15:50;12;12;
46094;PMS5003;31832;50.746;-2.716;2023-12-22T16:18:15;3;3;
46094;PMS5003;31832;50.746;-2.716;2023-12-22T16:20:41;6;6;
46094;PMS5003;31832;50.746;-2.716;2023-12-22T16:23:06;10;7;
46094;PMS5003;31832;50.746;-2.716;2023-12-22T16:25:32;10;8;
46094;PMS5003;31832;50.746;-2.716;2023-12-22T16:27:57;12;10;
46094;PMS5003;31832;50.746;-2.716;2023-12-22T16:30:22;11;11;
46094;PMS5003;31832;50.746;-2.716;2023-12-22T16:32:48;7;7;
46094;PMS5003;31832;50.746;-2.716;2023-12-22T16:35:13;5;5;